Time,TemperatureF,DewpointF,PressureIn,WindDirection,WindDirectionDegrees,WindSpeedMPH,WindSpeedGustMPH,Humidity,HourlyPrecipIn,Conditions,Clouds,dailyrainin,SoftwareType,DateUTC
2013-07-02 00:01:00,74.5,70.7,30.02,SSW,203,2.0,2.7,88,0.00,,,0.00,WUHU216HW,2013-07-02 04:01:00,
2013-07-02 00:06:00,74.3,70.6,30.02,SW,225,0.9,3.6,88,0.00,,,0.00,WUHU216HW,2013-07-02 04:06:00,
2013-07-02 00:11:00,74.3,70.6,30.02,SSE,158,0.4,3.6,88,0.00,,,0.00,WUHU216HW,2013-07-02 04:11:00,
2013-07-02 00:16:00,74.2,70.4,30.02,SSW,203,1.1,3.4,88,0.00,,,0.00,WUHU216HW,2013-07-02 04:16:00,
2013-07-02 00:21:00,74.2,70.4,30.03,SSW,203,0.2,3.6,88,0.00,,,0.00,WUHU216HW,2013-07-02 04:21:00,
2013-07-02 00:26:00,74.2,70.4,30.03,SSW,203,2.5,5.1,88,0.00,,,0.00,WUHU216HW,2013-07-02 04:26:00,
2013-07-02 00:32:00,74.2,70.4,30.02,ENE,68,0.4,5.1,88,0.00,,,0.00,WUHU216HW,2013-07-02 04:32:00,
2013-07-02 00:36:00,74.2,70.4,30.03,West,270,3.4,3.4,88,0.00,,,0.00,WUHU216HW,2013-07-02 04:36:00,
2013-07-02 00:41:00,74.2,70.4,30.03,SW,225,2.5,3.4,88,0.00,,,0.00,WUHU216HW,2013-07-02 04:41:00,
2013-07-02 00:47:00,74.2,70.4,30.03,SSW,203,2.0,3.6,88,0.00,,,0.00,WUHU216HW,2013-07-02 04:47:00,
2013-07-02 00:51:00,74.2,70.4,30.03,SE,135,0.4,3.6,88,0.00,,,0.00,WUHU216HW,2013-07-02 04:51:00,
2013-07-02 00:57:00,74.3,70.6,30.03,SSW,203,1.1,3.6,88,0.00,,,0.00,WUHU216HW,2013-07-02 04:57:00,
2013-07-02 01:01:00,74.3,70.6,30.03,ESE,113,0.2,3.6,88,0.00,,,0.00,WUHU216HW,2013-07-02 05:01:00,
2013-07-02 01:06:00,74.3,70.6,30.03,SSW,203,0.2,3.6,88,0.00,,,0.00,WUHU216HW,2013-07-02 05:06:00,
2013-07-02 01:11:00,74.3,70.6,30.03,SW,225,1.6,2.5,88,0.00,,,0.00,WUHU216HW,2013-07-02 05:11:00,
2013-07-02 01:16:00,74.3,70.6,30.03,SE,135,0.7,2.5,88,0.00,,,0.00,WUHU216HW,2013-07-02 05:16:00,
2013-07-02 01:21:00,74.3,70.6,30.03,SSW,203,0.4,2.2,88,0.00,,,0.00,WUHU216HW,2013-07-02 05:21:00,
2013-07-02 01:26:00,74.3,70.6,30.03,ENE,68,0.2,1.8,88,0.00,,,0.00,WUHU216HW,2013-07-02 05:26:00,
2013-07-02 01:31:00,74.2,70.4,30.03,SSE,158,0.4,3.4,88,0.00,,,0.00,WUHU216HW,2013-07-02 05:31:00,
2013-07-02 01:36:00,74.2,70.4,30.03,West,270,1.1,3.4,88,0.00,,,0.00,WUHU216HW,2013-07-02 05:36:00,
2013-07-02 01:41:00,74.2,70.4,30.03,South,180,1.1,2.5,88,0.00,,,0.00,WUHU216HW,2013-07-02 05:41:00,
2013-07-02 01:46:00,74.2,70.4,30.03,SSE,158,0.4,2.5,88,0.00,,,0.00,WUHU216HW,2013-07-02 05:46:00,
2013-07-02 01:51:00,74.2,70.4,30.03,North,0,2.2,2.2,88,0.00,,,0.00,WUHU216HW,2013-07-02 05:51:00,
2013-07-02 01:56:00,74.2,70.4,30.03,ENE,68,1.1,2.2,88,0.00,,,0.00,WUHU216HW,2013-07-02 05:56:00,
2013-07-02 02:01:00,74.2,70.4,30.03,South,180,0.4,2.2,88,0.00,,,0.00,WUHU216HW,2013-07-02 06:01:00,
2013-07-02 02:06:00,74.2,70.4,30.03,SSW,203,0.9,1.8,88,0.00,,,0.00,WUHU216HW,2013-07-02 06:06:00,
2013-07-02 02:11:00,74.2,70.4,30.03,SSW,203,1.3,1.8,88,0.00,,,0.00,WUHU216HW,2013-07-02 06:11:00,
2013-07-02 02:16:00,74.0,70.2,30.03,SE,135,0.0,1.6,88,0.00,,,0.00,WUHU216HW,2013-07-02 06:16:00,
2013-07-02 02:21:00,74.0,70.2,30.03,NE,45,0.4,2.9,88,0.00,,,0.00,WUHU216HW,2013-07-02 06:21:00,
2013-07-02 02:26:00,74.0,70.2,30.03,SE,135,0.0,2.9,88,0.00,,,0.00,WUHU216HW,2013-07-02 06:26:00,
2013-07-02 02:31:00,74.0,70.2,30.03,ENE,68,0.4,2.2,88,0.00,,,0.00,WUHU216HW,2013-07-02 06:31:00,
2013-07-02 02:36:00,74.0,70.2,30.03,SSE,158,2.5,2.9,88,0.00,,,0.00,WUHU216HW,2013-07-02 06:36:00,
2013-07-02 02:41:00,73.8,70.0,30.03,SSW,203,0.0,2.9,88,0.00,,,0.00,WUHU216HW,2013-07-02 06:41:00,
2013-07-02 02:46:00,73.8,70.0,30.03,WSW,248,0.4,2.0,88,0.00,,,0.00,WUHU216HW,2013-07-02 06:46:00,
2013-07-02 02:51:00,73.8,70.0,30.03,SE,135,0.4,2.0,88,0.00,,,0.00,WUHU216HW,2013-07-02 06:51:00,
2013-07-02 02:56:00,73.8,70.0,30.03,SW,225,0.2,2.0,88,0.00,,,0.00,WUHU216HW,2013-07-02 06:56:00,
2013-07-02 03:01:00,73.6,69.8,30.03,NNE,23,0.7,2.0,88,0.00,,,0.00,WUHU216HW,2013-07-02 07:01:00,
2013-07-02 03:06:00,73.6,69.8,30.03,WNW,293,0.0,1.1,88,0.00,,,0.00,WUHU216HW,2013-07-02 07:06:00,
2013-07-02 03:11:00,73.6,69.8,30.03,SSE,158,0.4,1.1,88,0.00,,,0.00,WUHU216HW,2013-07-02 07:11:00,
2013-07-02 03:16:00,73.4,69.7,30.03,WNW,293,0.2,1.1,88,0.00,,,0.00,WUHU216HW,2013-07-02 07:16:00,
2013-07-02 03:21:00,73.3,69.8,30.03,SW,225,0.0,1.1,89,0.00,,,0.00,WUHU216HW,2013-07-02 07:21:00,
2013-07-02 03:26:00,73.3,69.8,30.03,WSW,248,0.2,2.9,89,0.00,,,0.00,WUHU216HW,2013-07-02 07:26:00,
2013-07-02 03:31:00,73.3,69.8,30.03,South,180,0.4,2.9,89,0.00,,,0.00,WUHU216HW,2013-07-02 07:31:00,
2013-07-02 03:36:00,73.1,69.7,30.03,SSE,158,0.0,1.8,89,0.00,,,0.00,WUHU216HW,2013-07-02 07:36:00,
2013-07-02 03:41:00,73.1,69.7,30.03,SSW,203,0.4,1.8,89,0.00,,,0.00,WUHU216HW,2013-07-02 07:41:00,
2013-07-02 03:46:00,73.1,69.3,30.03,SE,135,1.1,1.6,88,0.00,,,0.00,WUHU216HW,2013-07-02 07:46:00,
2013-07-02 03:51:00,73.1,69.3,30.03,SSE,158,0.0,1.6,88,0.00,,,0.00,WUHU216HW,2013-07-02 07:51:00,
2013-07-02 03:56:00,72.9,69.1,30.03,South,180,0.4,1.8,88,0.00,,,0.00,WUHU216HW,2013-07-02 07:56:00,
2013-07-02 04:01:00,72.9,69.1,30.03,SSW,203,1.3,1.8,88,0.00,,,0.00,WUHU216HW,2013-07-02 08:01:00,
2013-07-02 04:06:00,72.9,69.1,30.03,ESE,113,0.2,1.3,88,0.00,,,0.00,WUHU216HW,2013-07-02 08:06:00,
2013-07-02 04:11:00,72.9,69.1,30.03,SSW,203,1.1,1.3,88,0.00,,,0.00,WUHU216HW,2013-07-02 08:11:00,
2013-07-02 04:16:00,72.7,68.9,30.03,NNE,23,0.4,1.3,88,0.00,,,0.00,WUHU216HW,2013-07-02 08:16:00,
2013-07-02 04:21:00,72.7,68.9,30.04,SE,135,0.4,1.6,88,0.00,,,0.00,WUHU216HW,2013-07-02 08:21:00,
2013-07-02 04:26:00,72.7,68.9,30.04,NW,315,0.7,1.6,88,0.00,,,0.00,WUHU216HW,2013-07-02 08:26:00,
2013-07-02 04:31:00,72.7,68.9,30.04,SSE,158,0.0,1.1,88,0.00,,,0.00,WUHU216HW,2013-07-02 08:31:00,
2013-07-02 04:36:00,72.5,68.8,30.04,SSE,158,0.0,2.2,88,0.00,,,0.00,WUHU216HW,2013-07-02 08:36:00,
2013-07-02 04:41:00,72.5,68.8,30.04,North,0,0.4,2.2,88,0.00,,,0.00,WUHU216HW,2013-07-02 08:41:00,
2013-07-02 04:46:00,72.5,68.8,30.04,South,180,0.4,1.1,88,0.00,,,0.00,WUHU216HW,2013-07-02 08:46:00,
2013-07-02 04:51:00,72.5,68.8,30.04,ESE,113,0.4,1.1,88,0.00,,,0.00,WUHU216HW,2013-07-02 08:51:00,
2013-07-02 04:56:00,72.5,68.8,30.04,SSW,203,0.4,1.1,88,0.00,,,0.00,WUHU216HW,2013-07-02 08:56:00,
2013-07-02 05:01:00,72.5,68.8,30.04,SW,225,0.4,1.1,88,0.00,,,0.00,WUHU216HW,2013-07-02 09:01:00,
2013-07-02 05:06:00,72.4,68.6,30.04,SW,225,0.0,1.1,88,0.00,,,0.00,WUHU216HW,2013-07-02 09:06:00,
2013-07-02 05:11:00,72.4,68.6,30.04,SSE,158,1.6,2.5,88,0.00,,,0.00,WUHU216HW,2013-07-02 09:11:00,
2013-07-02 05:16:00,72.4,68.6,30.04,SE,135,1.3,3.8,88,0.00,,,0.00,WUHU216HW,2013-07-02 09:16:00,
2013-07-02 05:21:00,72.4,68.6,30.05,SSW,203,0.7,3.8,88,0.00,,,0.00,WUHU216HW,2013-07-02 09:21:00,
2013-07-02 05:26:00,72.4,68.6,30.05,SSE,158,0.2,1.3,88,0.00,,,0.00,WUHU216HW,2013-07-02 09:26:00,
2013-07-02 05:31:00,72.4,68.6,30.05,ESE,113,0.0,1.1,88,0.00,,,0.00,WUHU216HW,2013-07-02 09:31:00,
2013-07-02 05:36:00,72.4,68.6,30.05,SSW,203,0.2,1.1,88,0.00,,,0.00,WUHU216HW,2013-07-02 09:36:00,
2013-07-02 05:41:00,72.4,68.6,30.05,SSE,158,0.4,1.1,88,0.00,,,0.00,WUHU216HW,2013-07-02 09:41:00,
2013-07-02 05:46:00,72.4,68.6,30.05,SW,225,0.0,1.6,88,0.00,,,0.00,WUHU216HW,2013-07-02 09:46:00,
2013-07-02 05:51:00,72.2,68.4,30.05,NNW,338,0.0,1.6,88,0.00,,,0.00,WUHU216HW,2013-07-02 09:51:00,
2013-07-02 05:56:00,72.2,68.4,30.06,West,270,0.7,0.7,88,0.00,,,0.00,WUHU216HW,2013-07-02 09:56:00,
2013-07-02 06:01:00,72.2,68.4,30.06,East,90,0.2,0.7,88,0.00,,,0.00,WUHU216HW,2013-07-02 10:01:00,
2013-07-02 06:06:00,72.2,68.4,30.06,SSW,203,0.0,0.9,88,0.00,,,0.00,WUHU216HW,2013-07-02 10:06:00,
2013-07-02 06:11:00,72.2,68.4,30.06,NW,315,0.2,1.1,88,0.00,,,0.00,WUHU216HW,2013-07-02 10:11:00,
2013-07-02 06:16:00,72.2,68.4,30.07,South,180,0.4,1.1,88,0.00,,,0.00,WUHU216HW,2013-07-02 10:16:00,
2013-07-02 06:21:00,72.2,68.4,30.07,SSE,158,0.0,2.0,88,0.00,,,0.00,WUHU216HW,2013-07-02 10:21:00,
2013-07-02 06:26:00,72.2,68.8,30.07,SSW,203,0.0,2.0,89,0.00,,,0.00,WUHU216HW,2013-07-02 10:26:00,
2013-07-02 06:31:00,72.2,68.8,30.07,WSW,248,0.0,1.3,89,0.00,,,0.00,WUHU216HW,2013-07-02 10:31:00,
2013-07-02 06:36:00,72.2,68.8,30.07,South,180,0.0,0.4,89,0.00,,,0.00,WUHU216HW,2013-07-02 10:36:00,
2013-07-02 06:41:00,72.2,68.8,30.08,South,180,0.2,1.3,89,0.00,,,0.00,WUHU216HW,2013-07-02 10:41:00,
2013-07-02 06:46:00,72.2,68.8,30.08,SE,135,0.4,1.6,89,0.00,,,0.00,WUHU216HW,2013-07-02 10:46:00,
2013-07-02 06:51:00,72.2,68.8,30.08,South,180,0.7,1.6,89,0.00,,,0.00,WUHU216HW,2013-07-02 10:51:00,
2013-07-02 06:56:00,72.4,68.9,30.08,SE,135,0.9,1.1,89,0.00,,,0.00,WUHU216HW,2013-07-02 10:56:00,
2013-07-02 07:01:00,72.4,68.9,30.08,SSE,158,0.4,0.9,89,0.00,,,0.00,WUHU216HW,2013-07-02 11:01:00,
2013-07-02 07:06:00,72.4,68.9,30.08,ESE,113,0.2,1.6,89,0.00,,,0.00,WUHU216HW,2013-07-02 11:06:00,
2013-07-02 07:11:00,72.5,69.1,30.08,ESE,113,0.0,2.0,89,0.00,,,0.00,WUHU216HW,2013-07-02 11:11:00,
2013-07-02 07:16:00,72.5,69.1,30.08,SE,135,0.4,2.0,89,0.00,,,0.00,WUHU216HW,2013-07-02 11:16:00,
2013-07-02 07:21:00,72.5,69.1,30.08,SE,135,0.0,1.1,89,0.00,,,0.00,WUHU216HW,2013-07-02 11:21:00,
2013-07-02 07:26:00,72.7,69.3,30.08,North,0,0.4,1.8,89,0.00,,,0.00,WUHU216HW,2013-07-02 11:26:00,
2013-07-02 07:31:00,72.7,68.9,30.09,ENE,68,1.1,2.2,88,0.00,,,0.00,WUHU216HW,2013-07-02 11:31:00,
2013-07-02 07:36:00,72.7,68.9,30.09,SSW,203,0.4,2.2,88,0.00,,,0.00,WUHU216HW,2013-07-02 11:36:00,
2013-07-02 07:41:00,72.7,68.9,30.09,SSW,203,0.9,2.9,88,0.00,,,0.00,WUHU216HW,2013-07-02 11:41:00,
2013-07-02 07:46:00,72.9,69.1,30.09,SSW,203,0.9,2.9,88,0.00,,,0.00,WUHU216HW,2013-07-02 11:46:00,
2013-07-02 07:51:00,72.9,69.1,30.09,SW,225,0.4,2.2,88,0.00,,,0.00,WUHU216HW,2013-07-02 11:51:00,
2013-07-02 07:56:00,73.1,69.3,30.09,SSW,203,0.0,2.2,88,0.00,,,0.00,WUHU216HW,2013-07-02 11:56:00,
2013-07-02 08:01:00,73.1,69.7,30.09,South,180,0.4,2.2,89,0.00,,,0.00,WUHU216HW,2013-07-02 12:01:00,
2013-07-02 08:06:00,73.3,69.8,30.09,SSW,203,0.4,3.1,89,0.00,,,0.00,WUHU216HW,2013-07-02 12:06:00,
2013-07-02 08:11:00,73.4,70.0,30.10,SE,135,1.3,3.1,89,0.00,,,0.00,WUHU216HW,2013-07-02 12:11:00,
2013-07-02 08:16:00,73.8,70.4,30.10,South,180,2.2,2.2,89,0.00,,,0.00,WUHU216HW,2013-07-02 12:16:00,
2013-07-02 08:21:00,73.8,70.0,30.10,South,180,0.4,2.7,88,0.00,,,0.00,WUHU216HW,2013-07-02 12:21:00,
2013-07-02 08:26:00,74.0,70.2,30.10,SSW,203,3.8,3.8,88,0.00,,,0.00,WUHU216HW,2013-07-02 12:26:00,
2013-07-02 08:31:00,74.2,70.4,30.10,SSE,158,0.4,3.8,88,0.00,,,0.00,WUHU216HW,2013-07-02 12:31:00,
2013-07-02 08:36:00,74.3,70.6,30.10,SW,225,2.0,3.8,88,0.00,,,0.00,WUHU216HW,2013-07-02 12:36:00,
2013-07-02 08:41:00,74.5,70.5,30.10,East,90,1.1,2.0,87,0.00,,,0.00,WUHU216HW,2013-07-02 12:41:00,
2013-07-02 08:46:00,74.5,70.5,30.10,SW,225,0.4,3.4,87,0.00,,,0.00,WUHU216HW,2013-07-02 12:46:00,
2013-07-02 08:51:00,74.5,70.5,30.11,WNW,293,0.2,3.4,87,0.00,,,0.00,WUHU216HW,2013-07-02 12:51:00,
2013-07-02 08:56:00,74.3,70.3,30.11,SSW,203,1.8,3.1,87,0.00,,,0.00,WUHU216HW,2013-07-02 12:56:00,
2013-07-02 09:01:00,74.5,70.5,30.11,WSW,248,0.0,2.0,87,0.00,,,0.00,WUHU216HW,2013-07-02 13:01:00,
2013-07-02 09:06:00,74.5,70.5,30.11,SE,135,0.2,1.8,87,0.00,,,0.00,WUHU216HW,2013-07-02 13:06:00,
2013-07-02 09:11:00,74.7,70.7,30.11,SSW,203,0.0,1.6,87,0.00,,,0.00,WUHU216HW,2013-07-02 13:11:00,
2013-07-02 09:16:00,74.7,70.7,30.11,SW,225,1.1,1.3,87,0.00,,,0.00,WUHU216HW,2013-07-02 13:16:00,
2013-07-02 09:21:00,74.7,70.7,30.11,SE,135,1.1,1.3,87,0.00,,,0.00,WUHU216HW,2013-07-02 13:21:00,
2013-07-02 09:27:00,74.9,70.8,30.11,SE,135,0.9,1.8,87,0.00,,,0.00,WUHU216HW,2013-07-02 13:27:00,
2013-07-02 09:31:00,75.2,71.2,30.11,SE,135,0.9,2.7,87,0.00,,,0.00,WUHU216HW,2013-07-02 13:31:00,
2013-07-02 09:36:00,75.8,71.6,30.11,East,90,2.0,2.7,87,0.00,,,0.00,WUHU216HW,2013-07-02 13:36:00,
2013-07-02 09:41:00,76.3,71.8,30.11,WSW,248,1.1,2.0,86,0.00,,,0.00,WUHU216HW,2013-07-02 13:41:00,
2013-07-02 09:47:00,76.7,71.8,30.11,WNW,293,1.3,2.0,85,0.00,,,0.00,WUHU216HW,2013-07-02 13:47:00,
2013-07-02 09:52:00,76.7,71.8,30.11,SSW,203,0.9,2.5,85,0.00,,,0.00,WUHU216HW,2013-07-02 13:52:00,
2013-07-02 09:57:00,77.0,71.8,30.11,SSW,203,0.4,2.9,84,0.00,,,0.00,WUHU216HW,2013-07-02 13:57:00,
2013-07-02 10:02:00,77.6,72.0,30.11,ESE,113,1.1,2.9,83,0.00,,,0.00,WUHU216HW,2013-07-02 14:02:00,
2013-07-02 10:07:00,77.9,72.4,30.11,WSW,248,0.4,2.9,83,0.00,,,0.00,WUHU216HW,2013-07-02 14:07:00,
2013-07-02 10:12:00,78.1,72.2,30.11,SSW,203,0.4,2.5,82,0.00,,,0.00,WUHU216HW,2013-07-02 14:12:00,
2013-07-02 10:17:00,78.3,72.0,30.11,SW,225,2.7,2.7,81,0.00,,,0.00,WUHU216HW,2013-07-02 14:17:00,
2013-07-02 10:22:00,78.5,72.2,30.11,NW,315,3.1,3.6,81,0.00,,,0.00,WUHU216HW,2013-07-02 14:22:00,
2013-07-02 10:27:00,78.3,72.0,30.11,NNW,338,0.9,3.6,81,0.00,,,0.00,WUHU216HW,2013-07-02 14:27:00,
2013-07-02 10:32:00,78.3,71.6,30.11,WSW,248,2.0,3.4,80,0.00,,,0.00,WUHU216HW,2013-07-02 14:32:00,
2013-07-02 10:37:00,78.3,71.6,30.11,South,180,2.9,3.4,80,0.00,,,0.00,WUHU216HW,2013-07-02 14:37:00,
2013-07-02 10:42:00,78.8,71.8,30.11,SW,225,1.8,3.8,79,0.00,,,0.00,WUHU216HW,2013-07-02 14:42:00,
2013-07-02 10:47:00,79.0,71.6,30.11,SSW,203,1.1,3.8,78,0.00,,,0.00,WUHU216HW,2013-07-02 14:47:00,
2013-07-02 10:52:00,78.5,71.0,30.11,SW,225,3.8,3.8,78,0.00,,,0.00,WUHU216HW,2013-07-02 14:52:00,
2013-07-02 10:57:00,78.1,71.1,30.11,NE,45,1.8,4.0,79,0.00,,,0.00,WUHU216HW,2013-07-02 14:57:00,
2013-07-02 11:02:00,77.9,71.3,30.11,SE,135,1.3,4.0,80,0.00,,,0.00,WUHU216HW,2013-07-02 15:02:00,
2013-07-02 11:07:00,77.9,71.6,30.11,South,180,1.1,2.5,81,0.00,,,0.00,WUHU216HW,2013-07-02 15:07:00,
2013-07-02 11:12:00,78.5,71.8,30.11,SSW,203,2.5,2.5,80,0.00,,,0.00,WUHU216HW,2013-07-02 15:12:00,
2013-07-02 11:17:00,79.2,72.2,30.11,SSW,203,2.5,3.4,79,0.00,,,0.00,WUHU216HW,2013-07-02 15:17:00,
2013-07-02 11:22:00,80.3,72.0,30.11,South,180,3.1,6.5,76,0.00,,,0.00,WUHU216HW,2013-07-02 15:22:00,
2013-07-02 11:27:00,81.0,72.7,30.11,SW,225,1.1,6.5,76,0.00,,,0.00,WUHU216HW,2013-07-02 15:27:00,
2013-07-02 11:32:00,81.2,72.6,30.11,South,180,0.7,3.4,75,0.00,,,0.00,WUHU216HW,2013-07-02 15:32:00,
2013-07-02 11:37:00,81.5,72.8,30.11,NE,45,0.7,4.0,75,0.00,,,0.00,WUHU216HW,2013-07-02 15:37:00,
2013-07-02 11:42:00,82.8,74.4,30.11,SW,225,4.9,4.9,76,0.00,,,0.00,WUHU216HW,2013-07-02 15:42:00,
2013-07-02 11:47:00,83.9,74.3,30.11,SSE,158,1.1,4.9,73,0.00,,,0.00,WUHU216HW,2013-07-02 15:47:00,
2013-07-02 11:52:00,83.9,74.3,30.11,SSE,158,0.4,4.9,73,0.00,,,0.00,WUHU216HW,2013-07-02 15:52:00,
2013-07-02 11:57:00,83.2,72.8,30.11,SE,135,2.9,2.9,71,0.00,,,0.00,WUHU216HW,2013-07-02 15:57:00,
2013-07-02 12:02:00,82.1,72.5,30.12,SW,225,0.4,2.9,73,0.00,,,0.00,WUHU216HW,2013-07-02 16:02:00,
2013-07-02 12:07:00,81.4,71.5,30.12,SW,225,2.5,2.7,72,0.00,,,0.00,WUHU216HW,2013-07-02 16:07:00,
2013-07-02 12:12:00,80.8,71.4,30.12,South,180,2.0,2.7,73,0.00,,,0.00,WUHU216HW,2013-07-02 16:12:00,
2013-07-02 12:17:00,80.5,71.8,30.12,NW,315,0.2,3.4,75,0.00,,,0.00,WUHU216HW,2013-07-02 16:17:00,
2013-07-02 12:22:00,80.3,71.6,30.12,SE,135,1.6,3.4,75,0.00,,,0.00,WUHU216HW,2013-07-02 16:22:00,
2013-07-02 12:27:00,79.9,71.3,30.12,East,90,2.5,2.5,75,0.00,,,0.00,WUHU216HW,2013-07-02 16:27:00,
2013-07-02 12:32:00,79.7,71.1,30.12,SSW,203,1.1,3.8,75,0.00,,,0.00,WUHU216HW,2013-07-02 16:32:00,
2013-07-02 12:37:00,79.4,70.7,30.12,SSW,203,1.6,3.8,75,0.00,,,0.00,WUHU216HW,2013-07-02 16:37:00,
2013-07-02 12:42:00,78.8,71.0,30.12,South,180,0.4,2.0,77,0.00,,,0.00,WUHU216HW,2013-07-02 16:42:00,
2013-07-02 12:47:00,78.1,70.7,30.12,SE,135,0.0,2.0,78,0.00,,,0.00,WUHU216HW,2013-07-02 16:47:00,
2013-07-02 12:52:00,77.6,70.6,30.12,East,90,1.3,2.2,79,0.01,,,0.01,WUHU216HW,2013-07-02 16:52:00,
2013-07-02 12:57:00,77.0,70.7,30.12,SSW,203,2.9,2.9,81,0.02,,,0.02,WUHU216HW,2013-07-02 16:57:00,
2013-07-02 13:02:00,76.7,70.4,30.12,SE,135,1.6,2.9,81,0.02,,,0.02,WUHU216HW,2013-07-02 17:02:00,
2013-07-02 13:07:00,76.5,70.3,30.12,SSE,158,0.4,2.9,81,0.02,,,0.02,WUHU216HW,2013-07-02 17:07:00,
2013-07-02 13:12:00,76.7,70.7,30.12,NE,45,0.0,2.5,82,0.02,,,0.02,WUHU216HW,2013-07-02 17:12:00,
2013-07-02 13:17:00,77.0,71.5,30.12,South,180,0.4,2.9,83,0.02,,,0.02,WUHU216HW,2013-07-02 17:17:00,
2013-07-02 13:22:00,77.4,71.8,30.12,SSE,158,1.1,2.9,83,0.02,,,0.02,WUHU216HW,2013-07-02 17:22:00,
2013-07-02 13:27:00,77.8,71.8,30.12,ESE,113,0.0,2.5,82,0.02,,,0.02,WUHU216HW,2013-07-02 17:27:00,
2013-07-02 13:32:00,78.3,72.4,30.12,SSE,158,0.7,1.6,82,0.02,,,0.02,WUHU216HW,2013-07-02 17:32:00,
2013-07-02 13:37:00,79.0,72.7,30.12,SSE,158,0.9,1.8,81,0.02,,,0.02,WUHU216HW,2013-07-02 17:37:00,
2013-07-02 13:42:00,79.9,73.6,30.12,North,0,0.2,1.8,81,0.02,,,0.02,WUHU216HW,2013-07-02 17:42:00,
2013-07-02 13:47:00,80.6,73.6,30.12,SSE,158,1.1,3.1,79,0.02,,,0.02,WUHU216HW,2013-07-02 17:47:00,
2013-07-02 13:52:00,80.5,73.0,30.12,SE,135,0.7,3.1,78,0.01,,,0.02,WUHU216HW,2013-07-02 17:52:00,
2013-07-02 13:57:00,80.3,72.8,30.12,SSW,203,2.0,4.5,78,0.00,,,0.02,WUHU216HW,2013-07-02 17:57:00,
2013-07-02 14:02:00,80.3,72.8,30.12,SW,225,0.2,4.5,78,0.00,,,0.02,WUHU216HW,2013-07-02 18:02:00,
2013-07-02 14:07:00,80.6,73.2,30.12,South,180,0.7,2.0,78,0.00,,,0.02,WUHU216HW,2013-07-02 18:07:00,
2013-07-02 14:12:00,80.6,72.8,30.12,WNW,293,0.7,1.8,77,0.00,,,0.02,WUHU216HW,2013-07-02 18:12:00,
2013-07-02 14:17:00,80.5,72.6,30.12,South,180,3.4,3.4,77,0.00,,,0.02,WUHU216HW,2013-07-02 18:17:00,
2013-07-02 14:21:00,80.3,72.5,30.12,SW,225,3.4,3.4,77,0.00,,,0.02,WUHU216HW,2013-07-02 18:21:00,
2013-07-02 14:27:00,80.6,73.2,30.12,South,180,0.0,3.4,78,0.00,,,0.02,WUHU216HW,2013-07-02 18:27:00,
2013-07-02 14:31:00,80.5,73.0,30.12,South,180,0.0,3.4,78,0.00,,,0.02,WUHU216HW,2013-07-02 18:31:00,
2013-07-02 14:37:00,80.5,73.0,30.12,SSW,203,0.2,2.0,78,0.00,,,0.02,WUHU216HW,2013-07-02 18:37:00,
2013-07-02 14:42:00,80.1,72.3,30.12,SSW,203,1.3,2.0,77,0.00,,,0.02,WUHU216HW,2013-07-02 18:42:00,
2013-07-02 14:47:00,79.9,72.5,30.12,West,270,1.3,2.0,78,0.00,,,0.02,WUHU216HW,2013-07-02 18:47:00,
2013-07-02 14:52:00,79.9,72.5,30.12,SSW,203,0.4,2.0,78,0.00,,,0.02,WUHU216HW,2013-07-02 18:52:00,
2013-07-02 14:57:00,79.7,72.3,30.12,SSE,158,0.4,1.6,78,0.00,,,0.02,WUHU216HW,2013-07-02 18:57:00,
2013-07-02 15:02:00,79.7,72.3,30.12,SE,135,1.1,1.8,78,0.00,,,0.02,WUHU216HW,2013-07-02 19:02:00,
2013-07-02 15:06:00,79.4,71.9,30.13,ESE,113,0.9,1.8,78,0.00,,,0.02,WUHU216HW,2013-07-02 19:06:00,
2013-07-02 15:12:00,79.0,72.0,30.12,South,180,0.0,1.8,79,0.00,,,0.02,WUHU216HW,2013-07-02 19:12:00,
2013-07-02 15:17:00,78.7,71.7,30.12,ESE,113,1.3,4.7,79,0.00,,,0.02,WUHU216HW,2013-07-02 19:17:00,
2013-07-02 15:22:00,78.3,71.3,30.12,SE,135,1.8,4.7,79,0.00,,,0.02,WUHU216HW,2013-07-02 19:22:00,
2013-07-02 15:27:00,77.9,71.3,30.12,West,270,0.4,3.8,80,0.00,,,0.02,WUHU216HW,2013-07-02 19:27:00,
2013-07-02 15:32:00,77.8,71.5,30.12,South,180,0.4,1.8,81,0.00,,,0.02,WUHU216HW,2013-07-02 19:32:00,
2013-07-02 15:37:00,77.8,71.5,30.11,SW,225,0.4,1.1,81,0.00,,,0.02,WUHU216HW,2013-07-02 19:37:00,
2013-07-02 15:42:00,77.8,71.5,30.12,SSW,203,1.3,1.3,81,0.00,,,0.02,WUHU216HW,2013-07-02 19:42:00,
2013-07-02 15:47:00,77.8,71.5,30.12,SSE,158,0.7,1.8,81,0.00,,,0.02,WUHU216HW,2013-07-02 19:47:00,
2013-07-02 15:52:00,77.8,71.5,30.11,SSE,158,0.4,1.8,81,0.00,,,0.02,WUHU216HW,2013-07-02 19:52:00,
2013-07-02 15:57:00,77.8,71.5,30.11,SE,135,1.3,3.6,81,0.00,,,0.02,WUHU216HW,2013-07-02 19:57:00,
2013-07-02 16:01:00,78.1,71.8,30.11,NNE,23,0.2,3.6,81,0.00,,,0.02,WUHU216HW,2013-07-02 20:01:00,
2013-07-02 16:06:00,78.1,71.8,30.11,ESE,113,0.4,2.5,81,0.00,,,0.02,WUHU216HW,2013-07-02 20:06:00,
2013-07-02 16:11:00,78.1,71.8,30.11,SE,135,0.4,2.5,81,0.00,,,0.02,WUHU216HW,2013-07-02 20:11:00,
2013-07-02 16:16:00,78.5,72.2,30.11,ESE,113,2.2,6.3,81,0.00,,,0.02,WUHU216HW,2013-07-02 20:16:00,
2013-07-02 16:21:00,79.0,72.4,30.11,ENE,68,0.4,6.3,80,0.00,,,0.02,WUHU216HW,2013-07-02 20:21:00,
2013-07-02 16:26:00,79.2,72.5,30.11,NNE,23,2.9,2.9,80,0.00,,,0.02,WUHU216HW,2013-07-02 20:26:00,
2013-07-02 16:31:00,78.8,71.8,30.11,ENE,68,1.8,4.0,79,0.00,,,0.02,WUHU216HW,2013-07-02 20:31:00,
2013-07-02 16:37:00,78.8,72.2,30.11,ENE,68,0.4,4.0,80,0.00,,,0.02,WUHU216HW,2013-07-02 20:37:00,
2013-07-02 16:42:00,79.4,72.7,30.11,SE,135,0.4,2.5,80,0.00,,,0.02,WUHU216HW,2013-07-02 20:42:00,
2013-07-02 16:47:00,79.7,72.7,30.11,SSE,158,0.4,1.8,79,0.00,,,0.02,WUHU216HW,2013-07-02 20:47:00,
2013-07-02 16:51:00,79.9,72.5,30.11,South,180,1.3,1.8,78,0.00,,,0.02,WUHU216HW,2013-07-02 20:51:00,
2013-07-02 16:56:00,80.1,72.6,30.11,SSE,158,2.5,2.5,78,0.00,,,0.02,WUHU216HW,2013-07-02 20:56:00,
2013-07-02 17:01:00,80.3,72.8,30.11,ENE,68,0.4,2.5,78,0.00,,,0.02,WUHU216HW,2013-07-02 21:01:00,
2013-07-02 17:06:00,80.6,73.2,30.11,SE,135,0.4,2.0,78,0.00,,,0.02,WUHU216HW,2013-07-02 21:06:00,
2013-07-02 17:11:00,81.0,73.2,30.11,South,180,1.1,2.0,77,0.00,,,0.02,WUHU216HW,2013-07-02 21:11:00,
2013-07-02 17:17:00,81.0,72.7,30.11,SSE,158,0.9,1.8,76,0.00,,,0.02,WUHU216HW,2013-07-02 21:17:00,
2013-07-02 17:21:00,80.6,72.4,30.11,South,180,0.7,1.8,76,0.00,,,0.02,WUHU216HW,2013-07-02 21:21:00,
2013-07-02 17:27:00,80.6,72.8,30.11,NNE,23,0.4,1.3,77,0.00,,,0.02,WUHU216HW,2013-07-02 21:27:00,
2013-07-02 17:31:00,80.6,72.8,30.11,East,90,0.7,1.3,77,0.00,,,0.02,WUHU216HW,2013-07-02 21:31:00,
2013-07-02 17:36:00,80.6,72.8,30.11,SSE,158,1.3,2.5,77,0.00,,,0.02,WUHU216HW,2013-07-02 21:36:00,
2013-07-02 17:41:00,80.5,72.2,30.11,East,90,0.9,2.5,76,0.00,,,0.02,WUHU216HW,2013-07-02 21:41:00,
2013-07-02 17:46:00,80.5,72.2,30.10,SE,135,1.1,1.8,76,0.00,,,0.02,WUHU216HW,2013-07-02 21:46:00,
2013-07-02 17:51:00,81.0,72.7,30.10,South,180,0.4,1.8,76,0.00,,,0.02,WUHU216HW,2013-07-02 21:51:00,
2013-07-02 17:56:00,81.2,72.6,30.10,ESE,113,0.9,1.8,75,0.00,,,0.02,WUHU216HW,2013-07-02 21:56:00,
2013-07-02 18:01:00,81.0,72.7,30.11,ESE,113,1.3,1.8,76,0.00,,,0.02,WUHU216HW,2013-07-02 22:01:00,
2013-07-02 18:06:00,80.6,72.4,30.10,SSE,158,1.6,4.9,76,0.00,,,0.02,WUHU216HW,2013-07-02 22:06:00,
2013-07-02 18:11:00,80.3,72.5,30.10,SE,135,0.9,4.9,77,0.00,,,0.02,WUHU216HW,2013-07-02 22:11:00,
2013-07-02 18:16:00,80.3,72.5,30.10,SSE,158,0.4,3.1,77,0.00,,,0.02,WUHU216HW,2013-07-02 22:16:00,
2013-07-02 18:21:00,80.3,72.5,30.11,SE,135,0.4,2.7,77,0.00,,,0.02,WUHU216HW,2013-07-02 22:21:00,
2013-07-02 18:26:00,80.5,72.6,30.10,SE,135,0.4,2.9,77,0.00,,,0.02,WUHU216HW,2013-07-02 22:26:00,
2013-07-02 18:31:00,80.6,72.8,30.11,SSE,158,0.7,2.9,77,0.00,,,0.02,WUHU216HW,2013-07-02 22:31:00,
2013-07-02 18:36:00,80.8,73.0,30.11,SE,135,0.9,2.9,77,0.00,,,0.02,WUHU216HW,2013-07-02 22:36:00,
2013-07-02 18:41:00,80.3,72.5,30.11,SE,135,0.4,2.9,77,0.00,,,0.02,WUHU216HW,2013-07-02 22:41:00,
2013-07-02 18:46:00,79.6,71.7,30.11,SSE,158,0.2,1.8,77,0.00,,,0.02,WUHU216HW,2013-07-02 22:46:00,
2013-07-02 18:51:00,79.2,71.7,30.11,SSW,203,0.0,1.1,78,0.00,,,0.02,WUHU216HW,2013-07-02 22:51:00,
2013-07-02 18:56:00,78.8,71.4,30.11,SSW,203,0.4,0.9,78,0.00,,,0.02,WUHU216HW,2013-07-02 22:56:00,
2013-07-02 19:02:00,78.5,71.5,30.11,SSE,158,0.0,2.5,79,0.00,,,0.02,WUHU216HW,2013-07-02 23:02:00,
2013-07-02 19:07:00,78.3,71.6,30.11,South,180,0.4,2.5,80,0.00,,,0.02,WUHU216HW,2013-07-02 23:07:00,
2013-07-02 19:12:00,78.1,71.5,30.12,SE,135,0.4,1.1,80,0.00,,,0.02,WUHU216HW,2013-07-02 23:12:00,
2013-07-02 19:17:00,77.8,71.1,30.12,WSW,248,0.9,1.8,80,0.00,,,0.02,WUHU216HW,2013-07-02 23:17:00,
2013-07-02 19:22:00,77.8,71.5,30.13,SSE,158,0.4,1.8,81,0.00,,,0.02,WUHU216HW,2013-07-02 23:22:00,
2013-07-02 19:27:00,77.8,71.5,30.13,NNW,338,0.2,1.3,81,0.00,,,0.02,WUHU216HW,2013-07-02 23:27:00,
2013-07-02 19:29:00,77.8,71.5,30.13,SSW,203,0.2,1.3,81,0.00,,,0.02,WUHU216HW,2013-07-02 23:29:00,
2013-07-02 19:34:00,77.8,71.5,30.13,SE,135,0.4,1.3,81,0.00,,,0.02,WUHU216HW,2013-07-02 23:34:00,
2013-07-02 19:39:00,77.6,71.3,30.13,SSW,203,0.4,0.9,81,0.00,,,0.02,WUHU216HW,2013-07-02 23:39:00,
2013-07-02 19:44:00,77.4,71.5,30.13,North,0,1.1,1.1,82,0.00,,,0.02,WUHU216HW,2013-07-02 23:44:00,
2013-07-02 19:49:00,77.2,71.3,30.13,SSE,158,0.0,1.8,82,0.00,,,0.02,WUHU216HW,2013-07-02 23:49:00,
2013-07-02 19:54:00,77.0,71.1,30.13,South,180,0.4,1.8,82,0.00,,,0.02,WUHU216HW,2013-07-02 23:54:00,
2013-07-02 19:59:00,77.0,71.5,30.13,SE,135,0.0,0.9,83,0.00,,,0.02,WUHU216HW,2013-07-02 23:59:00,
2013-07-02 20:01:00,76.9,71.3,30.13,SSE,158,0.0,0.9,83,0.00,,,0.02,WUHU216HW,2013-07-03 00:01:00,
2013-07-02 20:06:00,76.7,71.1,30.13,SSE,158,0.0,0.9,83,0.00,,,0.02,WUHU216HW,2013-07-03 00:06:00,
2013-07-02 20:11:00,76.5,70.9,30.13,South,180,0.0,0.7,83,0.00,,,0.02,WUHU216HW,2013-07-03 00:11:00,
2013-07-02 20:16:00,76.3,71.1,30.13,SSE,158,0.2,0.9,84,0.00,,,0.02,WUHU216HW,2013-07-03 00:16:00,
2013-07-02 20:21:00,76.3,71.1,30.13,West,270,0.4,0.9,84,0.00,,,0.02,WUHU216HW,2013-07-03 00:21:00,
2013-07-02 20:23:00,76.1,71.0,30.13,SSW,203,0.0,1.1,84,0.00,,,0.02,WUHU216HW,2013-07-03 00:23:00,
2013-07-02 20:24:00,76.1,71.0,30.13,SE,135,0.4,1.1,84,0.00,,,0.02,WUHU216HW,2013-07-03 00:24:00,
2013-07-02 20:28:00,76.0,70.8,30.13,SE,135,0.0,1.1,84,0.00,,,0.02,WUHU216HW,2013-07-03 00:28:00,
2013-07-02 20:33:00,76.0,71.2,30.13,SE,135,0.0,0.4,85,0.00,,,0.02,WUHU216HW,2013-07-03 00:33:00,
2013-07-02 20:38:00,75.8,71.0,30.13,SSE,158,0.0,0.2,85,0.00,,,0.02,WUHU216HW,2013-07-03 00:38:00,
2013-07-02 20:43:00,75.8,71.0,30.13,SSE,158,0.0,0.4,85,0.00,,,0.02,WUHU216HW,2013-07-03 00:43:00,
2013-07-02 20:48:00,75.8,71.0,30.13,East,90,0.0,0.7,85,0.00,,,0.02,WUHU216HW,2013-07-03 00:48:00,
2013-07-02 20:53:00,75.8,71.0,30.13,ENE,68,0.2,1.6,85,0.00,,,0.02,WUHU216HW,2013-07-03 00:53:00,
2013-07-02 20:58:00,75.8,71.0,30.14,SSE,158,0.0,1.6,85,0.00,,,0.02,WUHU216HW,2013-07-03 00:58:00,
2013-07-02 21:00:00,75.8,71.0,30.14,South,180,0.2,1.1,85,0.00,,,0.02,WUHU216HW,2013-07-03 01:00:00,
2013-07-02 21:03:00,75.8,71.4,30.14,East,90,0.0,0.9,86,0.00,,,0.02,WUHU216HW,2013-07-03 01:03:00,
2013-07-02 21:08:00,75.6,71.2,30.14,East,90,0.0,0.4,86,0.00,,,0.02,WUHU216HW,2013-07-03 01:08:00,
2013-07-02 21:09:00,75.6,71.2,30.14,East,90,0.0,0.4,86,0.00,,,0.02,WUHU216HW,2013-07-03 01:09:00,
2013-07-02 21:14:00,75.6,71.2,30.14,SSE,158,0.0,0.4,86,0.00,,,0.02,WUHU216HW,2013-07-03 01:14:00,
2013-07-02 21:19:00,75.4,71.4,30.14,SSE,158,0.0,0.4,87,0.00,,,0.02,WUHU216HW,2013-07-03 01:19:00,
2013-07-02 21:24:00,75.4,71.4,30.14,SW,225,0.4,1.1,87,0.00,,,0.02,WUHU216HW,2013-07-03 01:24:00,
2013-07-02 21:26:00,75.4,71.4,30.14,SW,225,0.0,1.1,87,0.00,,,0.02,WUHU216HW,2013-07-03 01:26:00,
2013-07-02 21:31:00,75.2,71.2,30.14,SW,225,0.0,0.4,87,0.00,,,0.02,WUHU216HW,2013-07-03 01:31:00,
2013-07-02 21:36:00,75.2,71.2,30.15,SW,225,0.0,0.0,87,0.00,,,0.02,WUHU216HW,2013-07-03 01:36:00,
2013-07-02 21:41:00,75.2,71.2,30.15,SSW,203,0.4,0.4,87,0.00,,,0.02,WUHU216HW,2013-07-03 01:41:00,
2013-07-02 21:46:00,75.2,71.5,30.15,SSW,203,0.0,0.4,88,0.00,,,0.02,WUHU216HW,2013-07-03 01:46:00,
2013-07-02 21:49:00,75.2,71.5,30.15,South,180,0.4,0.4,88,0.00,,,0.02,WUHU216HW,2013-07-03 01:49:00,
2013-07-02 21:50:00,75.2,71.5,30.15,South,180,0.0,0.4,88,0.00,,,0.02,WUHU216HW,2013-07-03 01:50:00,
2013-07-02 21:56:00,75.2,71.5,30.15,South,180,0.2,0.4,88,0.00,,,0.02,WUHU216HW,2013-07-03 01:56:00,
2013-07-02 22:01:00,75.2,71.5,30.16,SE,135,0.2,1.1,88,0.00,,,0.02,WUHU216HW,2013-07-03 02:01:00,
2013-07-02 22:06:00,75.2,71.5,30.16,ESE,113,0.4,1.1,88,0.00,,,0.02,WUHU216HW,2013-07-03 02:06:00,
2013-07-02 22:11:00,75.2,71.5,30.16,East,90,0.0,0.4,88,0.00,,,0.02,WUHU216HW,2013-07-03 02:11:00,
2013-07-02 22:16:00,75.2,71.5,30.16,NNW,338,0.0,0.4,88,0.00,,,0.02,WUHU216HW,2013-07-03 02:16:00,
2013-07-02 22:22:00,75.2,71.5,30.16,SE,135,0.7,0.7,88,0.00,,,0.02,WUHU216HW,2013-07-03 02:22:00,
2013-07-02 22:27:00,75.2,71.8,30.16,NNW,338,0.4,1.1,89,0.00,,,0.02,WUHU216HW,2013-07-03 02:27:00,
2013-07-02 22:32:00,75.2,71.8,30.16,SE,135,0.4,1.8,89,0.00,,,0.02,WUHU216HW,2013-07-03 02:32:00,
2013-07-02 22:37:00,75.2,71.5,30.17,SSW,203,1.8,1.8,88,0.00,,,0.02,WUHU216HW,2013-07-03 02:37:00,
2013-07-02 22:42:00,75.1,71.0,30.17,SSW,203,1.3,3.4,87,0.00,,,0.02,WUHU216HW,2013-07-03 02:42:00,
2013-07-02 22:47:00,75.1,71.0,30.17,SSW,203,0.2,3.4,87,0.00,,,0.02,WUHU216HW,2013-07-03 02:47:00,
2013-07-02 22:52:00,74.9,70.8,30.17,WSW,248,0.2,1.8,87,0.00,,,0.02,WUHU216HW,2013-07-03 02:52:00,
2013-07-02 22:57:00,74.9,70.8,30.18,SE,135,1.3,4.0,87,0.00,,,0.02,WUHU216HW,2013-07-03 02:57:00,
2013-07-02 23:02:00,74.7,70.7,30.18,South,180,0.0,4.0,87,0.00,,,0.02,WUHU216HW,2013-07-03 03:02:00,
2013-07-02 23:03:00,74.7,70.7,30.18,SW,225,2.0,4.0,87,0.00,,,0.02,WUHU216HW,2013-07-03 03:03:00,
2013-07-02 23:08:00,74.5,70.5,30.18,South,180,1.1,3.4,87,0.00,,,0.02,WUHU216HW,2013-07-03 03:08:00,
2013-07-02 23:14:00,74.5,70.5,30.18,SSW,203,0.4,2.5,87,0.00,,,0.02,WUHU216HW,2013-07-03 03:14:00,
2013-07-02 23:19:00,74.3,70.3,30.18,SE,135,1.1,2.5,87,0.00,,,0.02,WUHU216HW,2013-07-03 03:19:00,
2013-07-02 23:20:00,74.2,70.1,30.17,West,270,0.4,2.2,87,0.00,,,0.02,WUHU216HW,2013-07-03 03:20:00,
2013-07-02 23:25:00,74.2,70.1,30.17,SE,135,0.0,2.2,87,0.00,,,0.02,WUHU216HW,2013-07-03 03:25:00,
2013-07-02 23:30:00,74.0,69.9,30.16,SSW,203,0.0,0.9,87,0.00,,,0.02,WUHU216HW,2013-07-03 03:30:00,
2013-07-02 23:35:00,73.8,69.8,30.16,NE,45,0.0,1.1,87,0.00,,,0.02,WUHU216HW,2013-07-03 03:35:00,
2013-07-02 23:40:00,73.8,69.8,30.16,SSW,203,0.7,1.6,87,0.00,,,0.02,WUHU216HW,2013-07-03 03:40:00,
2013-07-02 23:45:00,73.6,69.6,30.16,SE,135,0.4,1.6,87,0.00,,,0.02,WUHU216HW,2013-07-03 03:45:00,
2013-07-02 23:51:00,73.6,69.6,30.16,SSW,203,0.2,0.9,87,0.00,,,0.02,WUHU216HW,2013-07-03 03:51:00,
2013-07-02 23:56:00,73.4,69.4,30.16,WSW,248,0.4,0.7,87,0.00,,,0.02,WUHU216HW,2013-07-03 03:56:00,